sensor_id;sensor_type;location;lat;lon;timestamp;P1;durP1;ratioP1;P2;durP2;ratioP2
71091;SDS011;58751;50.708;7.134;2024-01-10T00:01:28;15.43;;;10.63;;
71091;SDS011;58751;50.708;7.134;2024-01-10T00:03:54;13.50;;;9.85;;
71091;SDS011;58751;50.708;7.134;2024-01-10T00:06:19;15.20;;;9.60;;
71091;SDS011;58751;50.708;7.134;2024-01-10T00:08:45;12.17;;;9.33;;
71091;SDS011;58751;50.708;7.134;2024-01-10T00:11:10;15.13;;;10.40;;
71091;SDS011;58751;50.708;7.134;2024-01-10T00:13:35;14.57;;;10.20;;
71091;SDS011;58751;50.708;7.134;2024-01-10T00:16:01;14.93;;;10.43;;
71091;SDS011;58751;50.708;7.134;2024-01-10T00:18:27;14.27;;;10.23;;
71091;SDS011;58751;50.708;7.134;2024-01-10T00:20:53;17.50;;;11.00;;
71091;SDS011;58751;50.708;7.134;2024-01-10T00:23:18;16.83;;;9.00;;
71091;SDS011;58751;50.708;7.134;2024-01-10T00:25:44;16.33;;;9.87;;
71091;SDS011;58751;50.708;7.134;2024-01-10T00:28:09;12.40;;;8.30;;
71091;SDS011;58751;50.708;7.134;2024-01-10T00:30:35;14.37;;;8.00;;
71091;SDS011;58751;50.708;7.134;2024-01-10T00:33:00;15.97;;;9.50;;
71091;SDS011;58751;50.708;7.134;2024-01-10T00:35:27;12.83;;;8.67;;
71091;SDS011;58751;50.708;7.134;2024-01-10T00:37:52;13.95;;;9.20;;
71091;SDS011;58751;50.708;7.134;2024-01-10T00:40:17;12.03;;;8.53;;
71091;SDS011;58751;50.708;7.134;2024-01-10T00:42:43;9.80;;;7.73;;
71091;SDS011;58751;50.708;7.134;2024-01-10T00:45:08;11.40;;;8.50;;
71091;SDS011;58751;50.708;7.134;2024-01-10T00:47:34;12.17;;;9.63;;
71091;SDS011;58751;50.708;7.134;2024-01-10T00:49:59;13.33;;;9.23;;
71091;SDS011;58751;50.708;7.134;2024-01-10T00:52:26;15.60;;;9.17;;
71091;SDS011;58751;50.708;7.134;2024-01-10T00:54:51;18.85;;;8.98;;
71091;SDS011;58751;50.708;7.134;2024-01-10T00:57:17;13.10;;;9.23;;
71091;SDS011;58751;50.708;7.134;2024-01-10T00:59:42;14.40;;;9.90;;
71091;SDS011;58751;50.708;7.134;2024-01-10T01:02:07;16.70;;;9.63;;
71091;SDS011;58751;50.708;7.134;2024-01-10T01:04:33;11.30;;;9.20;;
71091;SDS011;58751;50.708;7.134;2024-01-10T01:06:58;11.67;;;8.80;;
71091;SDS011;58751;50.708;7.134;2024-01-10T01:09:25;16.03;;;9.13;;
71091;SDS011;58751;50.708;7.134;2024-01-10T01:11:50;15.52;;;8.82;;
71091;SDS011;58751;50.708;7.134;2024-01-10T01:14:16;15.17;;;9.37;;
71091;SDS011;58751;50.708;7.134;2024-01-10T01:16:41;12.83;;;9.40;;
71091;SDS011;58751;50.708;7.134;2024-01-10T01:19:07;15.17;;;8.30;;
71091;SDS011;58751;50.708;7.134;2024-01-10T01:21:32;11.30;;;7.43;;
71091;SDS011;58751;50.708;7.134;2024-01-10T01:23:57;11.67;;;7.40;;
71091;SDS011;58751;50.708;7.134;2024-01-10T01:26:24;12.90;;;7.90;;
71091;SDS011;58751;50.708;7.134;2024-01-10T01:28:50;10.70;;;8.23;;
71091;SDS011;58751;50.708;7.134;2024-01-10T01:31:15;9.30;;;8.30;;
71091;SDS011;58751;50.708;7.134;2024-01-10T01:33:40;9.47;;;7.70;;
71091;SDS011;58751;50.708;7.134;2024-01-10T01:36:06;15.07;;;9.60;;
71091;SDS011;58751;50.708;7.134;2024-01-10T01:38:31;16.27;;;8.90;;
71091;SDS011;58751;50.708;7.134;2024-01-10T01:40:57;12.30;;;7.63;;
71091;SDS011;58751;50.708;7.134;2024-01-10T01:43:24;11.47;;;7.80;;
71091;SDS011;58751;50.708;7.134;2024-01-10T01:45:50;12.70;;;7.47;;
71091;SDS011;58751;50.708;7.134;2024-01-10T01:48:17;13.55;;;9.07;;
71091;SDS011;58751;50.708;7.134;2024-01-10T01:50:43;14.07;;;9.17;;
71091;SDS011;58751;50.708;7.134;2024-01-10T01:53:09;12.63;;;7.95;;
71091;SDS011;58751;50.708;7.134;2024-01-10T01:55:35;12.53;;;8.03;;
71091;SDS011;58751;50.708;7.134;2024-01-10T01:58:01;14.47;;;8.73;;
71091;SDS011;58751;50.708;7.134;2024-01-10T02:00:27;11.97;;;8.60;;
71091;SDS011;58751;50.708;7.134;2024-01-10T02:02:53;10.70;;;7.55;;
71091;SDS011;58751;50.708;7.134;2024-01-10T02:05:19;14.32;;;8.55;;
71091;SDS011;58751;50.708;7.134;2024-01-10T02:07:45;14.40;;;8.40;;
71091;SDS011;58751;50.708;7.134;2024-01-10T02:10:10;13.40;;;8.73;;
71091;SDS011;58751;50.708;7.134;2024-01-10T02:12:35;15.07;;;9.60;;
71091;SDS011;58751;50.708;7.134;2024-01-10T02:15:01;14.27;;;7.67;;
71091;SDS011;58751;50.708;7.134;2024-01-10T02:17:28;12.47;;;8.60;;
71091;SDS011;58751;50.708;7.134;2024-01-10T02:20:07;11.75;;;7.32;;
71091;SDS011;58751;50.708;7.134;2024-01-10T02:22:33;12.60;;;8.15;;
71091;SDS011;58751;50.708;7.134;2024-01-10T02:24:59;12.83;;;8.23;;
71091;SDS011;58751;50.708;7.134;2024-01-10T02:27:25;12.35;;;8.32;;
71091;SDS011;58751;50.708;7.134;2024-01-10T02:29:50;16.90;;;7.90;;
71091;SDS011;58751;50.708;7.134;2024-01-10T02:32:16;10.50;;;7.03;;
71091;SDS011;58751;50.708;7.134;2024-01-10T02:34:41;15.83;;;9.10;;
71091;SDS011;58751;50.708;7.134;2024-01-10T02:37:06;15.20;;;7.13;;
71091;SDS011;58751;50.708;7.134;2024-01-10T02:39:32;12.53;;;7.97;;
71091;SDS011;58751;50.708;7.134;2024-01-10T02:41:59;12.07;;;7.73;;
71091;SDS011;58751;50.708;7.134;2024-01-10T02:44:24;14.27;;;8.07;;
71091;SDS011;58751;50.708;7.134;2024-01-10T02:46:49;13.90;;;8.80;;
71091;SDS011;58751;50.708;7.134;2024-01-10T02:49:15;14.27;;;7.80;;
71091;SDS011;58751;50.708;7.134;2024-01-10T02:51:40;10.90;;;7.00;;
71091;SDS011;58751;50.708;7.134;2024-01-10T02:54:05;12.43;;;7.90;;
71091;SDS011;58751;50.708;7.134;2024-01-10T02:56:31;13.13;;;6.90;;
71091;SDS011;58751;50.708;7.134;2024-01-10T02:58:58;11.80;;;8.20;;
71091;SDS011;58751;50.708;7.134;2024-01-10T03:01:23;13.65;;;8.35;;
71091;SDS011;58751;50.708;7.134;2024-01-10T03:03:48;15.80;;;9.03;;
71091;SDS011;58751;50.708;7.134;2024-01-10T03:06:14;12.80;;;7.77;;
71091;SDS011;58751;50.708;7.134;2024-01-10T03:08:39;13.40;;;8.23;;
71091;SDS011;58751;50.708;7.134;2024-01-10T03:11:04;9.10;;;7.37;;
71091;SDS011;58751;50.708;7.134;2024-01-10T03:13:30;10.17;;;7.23;;
71091;SDS011;58751;50.708;7.134;2024-01-10T03:15:57;10.40;;;7.13;;
71091;SDS011;58751;50.708;7.134;2024-01-10T03:18:23;10.00;;;6.80;;
71091;SDS011;58751;50.708;7.134;2024-01-10T03:20:48;10.70;;;8.05;;
71091;SDS011;58751;50.708;7.134;2024-01-10T03:23:14;10.33;;;7.83;;
71091;SDS011;58751;50.708;7.134;2024-01-10T03:25:39;14.30;;;8.40;;
71091;SDS011;58751;50.708;7.134;2024-01-10T03:28:05;12.20;;;7.77;;
71091;SDS011;58751;50.708;7.134;2024-01-10T03:30:30;9.23;;;6.73;;
71091;SDS011;58751;50.708;7.134;2024-01-10T03:32:57;10.27;;;8.30;;
71091;SDS011;58751;50.708;7.134;2024-01-10T03:35:22;11.50;;;7.82;;
71091;SDS011;58751;50.708;7.134;2024-01-10T03:37:47;11.60;;;7.43;;
71091;SDS011;58751;50.708;7.134;2024-01-10T03:40:13;15.67;;;8.27;;
71091;SDS011;58751;50.708;7.134;2024-01-10T03:42:38;15.43;;;7.80;;
71091;SDS011;58751;50.708;7.134;2024-01-10T03:45:04;13.57;;;8.13;;
71091;SDS011;58751;50.708;7.134;2024-01-10T03:47:30;15.23;;;8.52;;
71091;SDS011;58751;50.708;7.134;2024-01-10T03:49:57;14.70;;;7.80;;
71091;SDS011;58751;50.708;7.134;2024-01-10T03:52:22;12.05;;;7.40;;
71091;SDS011;58751;50.708;7.134;2024-01-10T03:54:47;13.17;;;7.40;;
71091;SDS011;58751;50.708;7.134;2024-01-10T03:57:13;11.03;;;7.90;;
71091;SDS011;58751;50.708;7.134;2024-01-10T03:59:38;17.20;;;8.33;;
71091;SDS011;58751;50.708;7.134;2024-01-10T04:02:04;13.83;;;8.00;;
71091;SDS011;58751;50.708;7.134;2024-01-10T04:04:30;15.50;;;8.70;;
71091;SDS011;58751;50.708;7.134;2024-01-10T04:06:57;11.60;;;8.17;;
71091;SDS011;58751;50.708;7.134;2024-01-10T04:09:22;12.38;;;7.15;;
71091;SDS011;58751;50.708;7.134;2024-01-10T04:11:47;13.50;;;9.50;;
71091;SDS011;58751;50.708;7.134;2024-01-10T04:14:13;10.40;;;7.97;;
71091;SDS011;58751;50.708;7.134;2024-01-10T04:16:38;13.67;;;8.20;;
71091;SDS011;58751;50.708;7.134;2024-01-10T04:19:03;15.13;;;7.50;;
71091;SDS011;58751;50.708;7.134;2024-01-10T04:21:29;12.97;;;8.30;;
71091;SDS011;58751;50.708;7.134;2024-01-10T04:23:56;14.97;;;8.47;;
71091;SDS011;58751;50.708;7.134;2024-01-10T04:26:21;15.75;;;9.48;;
71091;SDS011;58751;50.708;7.134;2024-01-10T04:28:46;11.93;;;7.90;;
71091;SDS011;58751;50.708;7.134;2024-01-10T04:31:12;14.50;;;9.13;;
71091;SDS011;58751;50.708;7.134;2024-01-10T04:33:37;12.33;;;7.43;;
71091;SDS011;58751;50.708;7.134;2024-01-10T04:36:02;11.97;;;7.87;;
71091;SDS011;58751;50.708;7.134;2024-01-10T04:38:28;10.80;;;8.40;;
71091;SDS011;58751;50.708;7.134;2024-01-10T04:40:55;11.17;;;7.67;;
71091;SDS011;58751;50.708;7.134;2024-01-10T04:43:20;10.43;;;7.88;;
71091;SDS011;58751;50.708;7.134;2024-01-10T04:45:45;11.93;;;7.07;;
71091;SDS011;58751;50.708;7.134;2024-01-10T04:48:11;12.43;;;7.57;;
71091;SDS011;58751;50.708;7.134;2024-01-10T04:50:37;12.73;;;7.70;;
71091;SDS011;58751;50.708;7.134;2024-01-10T04:53:02;12.00;;;7.70;;
71091;SDS011;58751;50.708;7.134;2024-01-10T04:55:28;11.93;;;8.00;;
71091;SDS011;58751;50.708;7.134;2024-01-10T04:57:54;15.17;;;8.77;;
71091;SDS011;58751;50.708;7.134;2024-01-10T05:00:20;12.77;;;7.97;;
71091;SDS011;58751;50.708;7.134;2024-01-10T05:02:45;12.80;;;8.50;;
71091;SDS011;58751;50.708;7.134;2024-01-10T05:05:11;12.77;;;8.00;;
71091;SDS011;58751;50.708;7.134;2024-01-10T05:07:36;12.43;;;7.43;;
71091;SDS011;58751;50.708;7.134;2024-01-10T05:10:01;16.73;;;8.20;;
71091;SDS011;58751;50.708;7.134;2024-01-10T05:12:27;11.87;;;7.80;;
71091;SDS011;58751;50.708;7.134;2024-01-10T05:14:54;13.67;;;9.07;;
71091;SDS011;58751;50.708;7.134;2024-01-10T05:17:19;13.52;;;9.07;;
71091;SDS011;58751;50.708;7.134;2024-01-10T05:19:45;10.30;;;7.70;;
71091;SDS011;58751;50.708;7.134;2024-01-10T05:22:10;11.53;;;7.70;;
71091;SDS011;58751;50.708;7.134;2024-01-10T05:24:36;11.70;;;8.43;;
71091;SDS011;58751;50.708;7.134;2024-01-10T05:27:01;10.97;;;7.70;;
71091;SDS011;58751;50.708;7.134;2024-01-10T05:29:27;12.23;;;7.87;;
71091;SDS011;58751;50.708;7.134;2024-01-10T05:31:53;13.83;;;8.60;;
71091;SDS011;58751;50.708;7.134;2024-01-10T05:34:19;10.95;;;7.18;;
71091;SDS011;58751;50.708;7.134;2024-01-10T05:36:44;11.30;;;8.30;;
71091;SDS011;58751;50.708;7.134;2024-01-10T05:39:09;13.90;;;7.53;;
71091;SDS011;58751;50.708;7.134;2024-01-10T05:41:35;13.70;;;8.23;;
71091;SDS011;58751;50.708;7.134;2024-01-10T05:44:00;22.03;;;8.50;;
71091;SDS011;58751;50.708;7.134;2024-01-10T05:46:26;13.30;;;7.97;;
71091;SDS011;58751;50.708;7.134;2024-01-10T05:48:52;11.50;;;8.33;;
71091;SDS011;58751;50.708;7.134;2024-01-10T05:51:18;12.60;;;8.52;;
71091;SDS011;58751;50.708;7.134;2024-01-10T05:53:43;9.23;;;7.53;;
71091;SDS011;58751;50.708;7.134;2024-01-10T05:56:09;14.07;;;8.93;;
71091;SDS011;58751;50.708;7.134;2024-01-10T05:58:34;13.07;;;8.50;;
71091;SDS011;58751;50.708;7.134;2024-01-10T06:00:59;11.93;;;8.50;;
71091;SDS011;58751;50.708;7.134;2024-01-10T06:03:25;13.50;;;8.37;;
71091;SDS011;58751;50.708;7.134;2024-01-10T06:05:52;10.43;;;6.90;;
71091;SDS011;58751;50.708;7.134;2024-01-10T06:08:17;16.02;;;7.70;;
71091;SDS011;58751;50.708;7.134;2024-01-10T06:10:42;20.90;;;9.10;;
71091;SDS011;58751;50.708;7.134;2024-01-10T06:13:08;17.00;;;8.87;;
71091;SDS011;58751;50.708;7.134;2024-01-10T06:15:33;14.53;;;9.07;;
71091;SDS011;58751;50.708;7.134;2024-01-10T06:17:59;13.67;;;9.10;;
71091;SDS011;58751;50.708;7.134;2024-01-10T06:20:24;12.73;;;9.10;;
71091;SDS011;58751;50.708;7.134;2024-01-10T06:22:51;19.10;;;9.90;;
71091;SDS011;58751;50.708;7.134;2024-01-10T06:25:16;13.07;;;8.70;;
71091;SDS011;58751;50.708;7.134;2024-01-10T06:27:42;18.03;;;10.13;;
71091;SDS011;58751;50.708;7.134;2024-01-10T06:30:07;20.83;;;10.17;;
71091;SDS011;58751;50.708;7.134;2024-01-10T06:32:33;18.90;;;9.40;;
71091;SDS011;58751;50.708;7.134;2024-01-10T06:34:59;16.80;;;9.33;;
71091;SDS011;58751;50.708;7.134;2024-01-10T06:37:24;18.67;;;10.23;;
71091;SDS011;58751;50.708;7.134;2024-01-10T06:39:51;15.10;;;9.87;;
71091;SDS011;58751;50.708;7.134;2024-01-10T06:42:16;20.00;;;9.93;;
71091;SDS011;58751;50.708;7.134;2024-01-10T06:44:41;13.47;;;8.70;;
71091;SDS011;58751;50.708;7.134;2024-01-10T06:47:07;18.10;;;9.63;;
71091;SDS011;58751;50.708;7.134;2024-01-10T06:49:32;14.20;;;9.43;;
71091;SDS011;58751;50.708;7.134;2024-01-10T06:51:58;13.77;;;8.73;;
71091;SDS011;58751;50.708;7.134;2024-01-10T06:54:23;14.50;;;10.10;;
71091;SDS011;58751;50.708;7.134;2024-01-10T06:56:50;24.43;;;11.10;;
71091;SDS011;58751;50.708;7.134;2024-01-10T06:59:15;14.07;;;8.73;;
71091;SDS011;58751;50.708;7.134;2024-01-10T07:01:41;16.37;;;9.93;;
71091;SDS011;58751;50.708;7.134;2024-01-10T07:04:06;15.60;;;8.90;;
71091;SDS011;58751;50.708;7.134;2024-01-10T07:06:31;12.47;;;8.10;;
71091;SDS011;58751;50.708;7.134;2024-01-10T07:08:57;18.20;;;10.17;;
71091;SDS011;58751;50.708;7.134;2024-01-10T07:11:22;14.90;;;8.93;;
71091;SDS011;58751;50.708;7.134;2024-01-10T07:13:49;17.90;;;9.80;;
71091;SDS011;58751;50.708;7.134;2024-01-10T07:16:14;15.55;;;9.20;;
71091;SDS011;58751;50.708;7.134;2024-01-10T07:18:40;14.83;;;8.77;;
71091;SDS011;58751;50.708;7.134;2024-01-10T07:21:05;13.13;;;9.67;;
71091;SDS011;58751;50.708;7.134;2024-01-10T07:23:31;17.00;;;8.70;;
71091;SDS011;58751;50.708;7.134;2024-01-10T07:25:56;17.00;;;10.10;;
71091;SDS011;58751;50.708;7.134;2024-01-10T07:28:21;16.23;;;8.57;;
71091;SDS011;58751;50.708;7.134;2024-01-10T07:30:48;16.13;;;9.60;;
71091;SDS011;58751;50.708;7.134;2024-01-10T07:33:13;15.65;;;9.57;;
71091;SDS011;58751;50.708;7.134;2024-01-10T07:35:39;16.40;;;9.73;;
71091;SDS011;58751;50.708;7.134;2024-01-10T07:38:04;14.53;;;8.80;;
71091;SDS011;58751;50.708;7.134;2024-01-10T07:40:30;14.10;;;10.60;;
71091;SDS011;58751;50.708;7.134;2024-01-10T07:42:55;20.97;;;9.90;;
71091;SDS011;58751;50.708;7.134;2024-01-10T07:45:21;18.03;;;10.03;;
71091;SDS011;58751;50.708;7.134;2024-01-10T07:47:48;15.10;;;10.53;;
71091;SDS011;58751;50.708;7.134;2024-01-10T07:50:13;15.40;;;9.63;;
71091;SDS011;58751;50.708;7.134;2024-01-10T07:52:38;15.17;;;9.93;;
71091;SDS011;58751;50.708;7.134;2024-01-10T07:55:04;14.50;;;9.40;;
71091;SDS011;58751;50.708;7.134;2024-01-10T07:57:30;15.63;;;9.75;;
71091;SDS011;58751;50.708;7.134;2024-01-10T07:59:55;16.43;;;10.80;;
71091;SDS011;58751;50.708;7.134;2024-01-10T08:02:21;18.90;;;10.20;;
71091;SDS011;58751;50.708;7.134;2024-01-10T08:04:47;13.63;;;9.57;;
71091;SDS011;58751;50.708;7.134;2024-01-10T08:07:13;18.00;;;10.70;;
71091;SDS011;58751;50.708;7.134;2024-01-10T08:09:38;16.40;;;10.70;;
71091;SDS011;58751;50.708;7.134;2024-01-10T08:12:04;15.93;;;10.07;;
71091;SDS011;58751;50.708;7.134;2024-01-10T08:14:30;15.73;;;11.15;;
71091;SDS011;58751;50.708;7.134;2024-01-10T08:16:55;15.00;;;10.00;;
71091;SDS011;58751;50.708;7.134;2024-01-10T08:19:20;18.37;;;10.50;;
71091;SDS011;58751;50.708;7.134;2024-01-10T08:21:47;15.60;;;10.63;;
71091;SDS011;58751;50.708;7.134;2024-01-10T08:24:13;18.90;;;12.50;;
71091;SDS011;58751;50.708;7.134;2024-01-10T08:26:38;16.80;;;10.73;;
71091;SDS011;58751;50.708;7.134;2024-01-10T08:29:03;24.03;;;12.30;;
71091;SDS011;58751;50.708;7.134;2024-01-10T08:31:29;20.90;;;10.50;;
71091;SDS011;58751;50.708;7.134;2024-01-10T08:33:54;19.33;;;12.23;;
71091;SDS011;58751;50.708;7.134;2024-01-10T08:36:20;18.30;;;12.17;;
71091;SDS011;58751;50.708;7.134;2024-01-10T08:38:46;21.63;;;11.20;;
71091;SDS011;58751;50.708;7.134;2024-01-10T08:41:12;19.45;;;11.00;;
71091;SDS011;58751;50.708;7.134;2024-01-10T08:43:37;22.03;;;11.03;;
71091;SDS011;58751;50.708;7.134;2024-01-10T08:46:03;21.43;;;11.40;;
71091;SDS011;58751;50.708;7.134;2024-01-10T08:48:29;21.33;;;11.30;;
71091;SDS011;58751;50.708;7.134;2024-01-10T08:50:54;21.53;;;11.10;;
71091;SDS011;58751;50.708;7.134;2024-01-10T08:53:20;18.40;;;10.33;;
71091;SDS011;58751;50.708;7.134;2024-01-10T08:55:49;14.80;;;10.50;;
71091;SDS011;58751;50.708;7.134;2024-01-10T08:58:14;16.23;;;9.35;;
71091;SDS011;58751;50.708;7.134;2024-01-10T09:00:40;21.10;;;11.67;;
71091;SDS011;58751;50.708;7.134;2024-01-10T09:03:05;20.27;;;10.90;;
71091;SDS011;58751;50.708;7.134;2024-01-10T09:05:38;16.92;;;10.60;;
71091;SDS011;58751;50.708;7.134;2024-01-10T09:08:04;20.73;;;12.60;;
71091;SDS011;58751;50.708;7.134;2024-01-10T09:10:29;18.57;;;12.50;;
71091;SDS011;58751;50.708;7.134;2024-01-10T09:12:57;22.00;;;11.27;;
71091;SDS011;58751;50.708;7.134;2024-01-10T09:15:23;15.32;;;10.55;;
71091;SDS011;58751;50.708;7.134;2024-01-10T09:17:48;19.20;;;11.77;;
71091;SDS011;58751;50.708;7.134;2024-01-10T09:20:14;19.87;;;12.13;;
71091;SDS011;58751;50.708;7.134;2024-01-10T09:22:40;18.88;;;11.70;;
71091;SDS011;58751;50.708;7.134;2024-01-10T09:25:05;25.27;;;11.87;;
71091;SDS011;58751;50.708;7.134;2024-01-10T09:27:31;26.02;;;12.52;;
71091;SDS011;58751;50.708;7.134;2024-01-10T09:29:58;20.50;;;12.10;;
71091;SDS011;58751;50.708;7.134;2024-01-10T09:32:24;21.90;;;12.20;;
71091;SDS011;58751;50.708;7.134;2024-01-10T09:34:49;21.07;;;12.20;;
71091;SDS011;58751;50.708;7.134;2024-01-10T09:37:14;18.43;;;13.20;;
71091;SDS011;58751;50.708;7.134;2024-01-10T09:39:40;22.97;;;12.20;;
71091;SDS011;58751;50.708;7.134;2024-01-10T09:42:05;20.87;;;12.60;;
71091;SDS011;58751;50.708;7.134;2024-01-10T09:44:31;23.73;;;12.53;;
71091;SDS011;58751;50.708;7.134;2024-01-10T09:46:58;22.83;;;12.23;;
71091;SDS011;58751;50.708;7.134;2024-01-10T09:49:24;24.88;;;13.75;;
71091;SDS011;58751;50.708;7.134;2024-01-10T09:51:49;20.20;;;13.10;;
71091;SDS011;58751;50.708;7.134;2024-01-10T09:54:16;20.17;;;13.50;;
71091;SDS011;58751;50.708;7.134;2024-01-10T09:56:41;19.43;;;13.40;;
71091;SDS011;58751;50.708;7.134;2024-01-10T09:59:07;19.33;;;13.03;;
71091;SDS011;58751;50.708;7.134;2024-01-10T10:01:32;19.27;;;12.33;;
71091;SDS011;58751;50.708;7.134;2024-01-10T10:03:59;21.07;;;12.50;;
71091;SDS011;58751;50.708;7.134;2024-01-10T10:06:26;21.95;;;13.77;;
71091;SDS011;58751;50.708;7.134;2024-01-10T10:08:51;21.90;;;13.37;;
71091;SDS011;58751;50.708;7.134;2024-01-10T10:11:16;19.73;;;13.13;;
71091;SDS011;58751;50.708;7.134;2024-01-10T10:13:42;22.10;;;15.20;;
71091;SDS011;58751;50.708;7.134;2024-01-10T10:16:08;19.77;;;13.00;;
71091;SDS011;58751;50.708;7.134;2024-01-10T10:18:33;25.20;;;14.57;;
71091;SDS011;58751;50.708;7.134;2024-01-10T10:21:10;20.30;;;13.53;;
71091;SDS011;58751;50.708;7.134;2024-01-10T10:23:36;21.10;;;13.60;;
71091;SDS011;58751;50.708;7.134;2024-01-10T10:26:11;26.10;;;13.97;;
71091;SDS011;58751;50.708;7.134;2024-01-10T10:28:38;19.70;;;13.20;;
71091;SDS011;58751;50.708;7.134;2024-01-10T10:31:04;24.85;;;13.60;;
71091;SDS011;58751;50.708;7.134;2024-01-10T10:33:38;23.75;;;14.02;;
71091;SDS011;58751;50.708;7.134;2024-01-10T10:36:04;20.90;;;13.18;;
71091;SDS011;58751;50.708;7.134;2024-01-10T10:38:30;19.15;;;14.38;;
71091;SDS011;58751;50.708;7.134;2024-01-10T10:40:55;20.57;;;14.10;;
71091;SDS011;58751;50.708;7.134;2024-01-10T10:43:23;25.27;;;14.55;;
71091;SDS011;58751;50.708;7.134;2024-01-10T10:45:49;22.53;;;14.50;;
71091;SDS011;58751;50.708;7.134;2024-01-10T10:48:15;26.30;;;13.85;;
71091;SDS011;58751;50.708;7.134;2024-01-10T10:50:44;21.55;;;14.10;;
71091;SDS011;58751;50.708;7.134;2024-01-10T10:53:12;26.92;;;14.45;;
71091;SDS011;58751;50.708;7.134;2024-01-10T10:55:37;28.03;;;16.70;;
71091;SDS011;58751;50.708;7.134;2024-01-10T10:58:03;20.33;;;13.90;;
71091;SDS011;58751;50.708;7.134;2024-01-10T11:00:28;24.70;;;15.47;;
71091;SDS011;58751;50.708;7.134;2024-01-10T11:02:54;32.13;;;15.50;;
71091;SDS011;58751;50.708;7.134;2024-01-10T11:05:22;25.48;;;14.10;;
71091;SDS011;58751;50.708;7.134;2024-01-10T11:07:49;24.77;;;14.10;;
71091;SDS011;58751;50.708;7.134;2024-01-10T11:10:26;20.00;;;14.50;;
71091;SDS011;58751;50.708;7.134;2024-01-10T11:13:00;23.95;;;13.98;;
71091;SDS011;58751;50.708;7.134;2024-01-10T11:18:49;27.75;;;14.82;;
71091;SDS011;58751;50.708;7.134;2024-01-10T11:21:23;23.55;;;14.32;;
71091;SDS011;58751;50.708;7.134;2024-01-10T11:23:58;24.20;;;15.68;;
71091;SDS011;58751;50.708;7.134;2024-01-10T11:26:24;25.83;;;15.43;;
71091;SDS011;58751;50.708;7.134;2024-01-10T11:28:50;25.10;;;16.17;;
71091;SDS011;58751;50.708;7.134;2024-01-10T11:31:16;20.70;;;15.03;;
71091;SDS011;58751;50.708;7.134;2024-01-10T11:33:52;19.83;;;14.45;;
71091;SDS011;58751;50.708;7.134;2024-01-10T11:36:18;23.03;;;16.20;;
71091;SDS011;58751;50.708;7.134;2024-01-10T11:38:47;23.92;;;14.70;;
71091;SDS011;58751;50.708;7.134;2024-01-10T11:41:19;21.17;;;14.73;;
71091;SDS011;58751;50.708;7.134;2024-01-10T11:43:45;29.05;;;16.80;;
71091;SDS011;58751;50.708;7.134;2024-01-10T11:46:12;25.23;;;15.57;;
71091;SDS011;58751;50.708;7.134;2024-01-10T11:48:37;21.60;;;14.18;;
71091;SDS011;58751;50.708;7.134;2024-01-10T11:51:03;20.93;;;15.33;;
71091;SDS011;58751;50.708;7.134;2024-01-10T11:53:38;26.47;;;15.30;;
71091;SDS011;58751;50.708;7.134;2024-01-10T11:56:10;22.52;;;15.45;;
71091;SDS011;58751;50.708;7.134;2024-01-10T12:01:20;20.48;;;14.65;;
71091;SDS011;58751;50.708;7.134;2024-01-10T12:03:46;22.48;;;13.85;;
71091;SDS011;58751;50.708;7.134;2024-01-10T12:06:12;22.00;;;15.87;;
71091;SDS011;58751;50.708;7.134;2024-01-10T12:08:38;23.05;;;15.32;;
71091;SDS011;58751;50.708;7.134;2024-01-10T12:11:04;26.30;;;15.87;;
71091;SDS011;58751;50.708;7.134;2024-01-10T12:13:29;23.03;;;15.40;;
71091;SDS011;58751;50.708;7.134;2024-01-10T12:15:56;29.83;;;15.50;;
71091;SDS011;58751;50.708;7.134;2024-01-10T12:18:21;23.67;;;15.50;;
71091;SDS011;58751;50.708;7.134;2024-01-10T12:20:47;23.30;;;15.83;;
71091;SDS011;58751;50.708;7.134;2024-01-10T12:23:12;25.87;;;16.20;;
71091;SDS011;58751;50.708;7.134;2024-01-10T12:25:37;25.17;;;16.27;;
71091;SDS011;58751;50.708;7.134;2024-01-10T12:28:03;21.37;;;15.60;;
71091;SDS011;58751;50.708;7.134;2024-01-10T12:30:29;22.08;;;15.45;;
71091;SDS011;58751;50.708;7.134;2024-01-10T12:32:56;28.38;;;16.08;;
71091;SDS011;58751;50.708;7.134;2024-01-10T12:35:23;23.63;;;15.00;;
71091;SDS011;58751;50.708;7.134;2024-01-10T12:37:55;24.53;;;15.40;;
71091;SDS011;58751;50.708;7.134;2024-01-10T12:40:20;25.88;;;16.85;;
71091;SDS011;58751;50.708;7.134;2024-01-10T12:42:46;23.73;;;16.00;;
71091;SDS011;58751;50.708;7.134;2024-01-10T12:45:21;27.23;;;17.20;;
71091;SDS011;58751;50.708;7.134;2024-01-10T12:47:46;25.98;;;15.50;;
71091;SDS011;58751;50.708;7.134;2024-01-10T12:50:13;24.40;;;17.00;;
71091;SDS011;58751;50.708;7.134;2024-01-10T12:52:39;25.77;;;16.42;;
71091;SDS011;58751;50.708;7.134;2024-01-10T12:55:05;24.58;;;16.05;;
71091;SDS011;58751;50.708;7.134;2024-01-10T12:57:31;23.65;;;15.20;;
71091;SDS011;58751;50.708;7.134;2024-01-10T12:59:56;27.83;;;17.30;;
71091;SDS011;58751;50.708;7.134;2024-01-10T13:02:22;23.30;;;16.27;;
71091;SDS011;58751;50.708;7.134;2024-01-10T13:04:47;23.33;;;16.43;;
71091;SDS011;58751;50.708;7.134;2024-01-10T13:07:14;22.93;;;16.97;;
71091;SDS011;58751;50.708;7.134;2024-01-10T13:09:39;24.30;;;16.45;;
71091;SDS011;58751;50.708;7.134;2024-01-10T13:12:05;23.30;;;16.00;;
71091;SDS011;58751;50.708;7.134;2024-01-10T13:14:31;27.30;;;18.10;;
71091;SDS011;58751;50.708;7.134;2024-01-10T13:16:57;19.53;;;14.70;;
71091;SDS011;58751;50.708;7.134;2024-01-10T13:19:22;23.40;;;16.07;;
71091;SDS011;58751;50.708;7.134;2024-01-10T13:21:47;25.87;;;16.60;;
71091;SDS011;58751;50.708;7.134;2024-01-10T13:24:14;32.13;;;16.10;;
71091;SDS011;58751;50.708;7.134;2024-01-10T13:26:39;22.52;;;16.02;;
71091;SDS011;58751;50.708;7.134;2024-01-10T13:29:05;24.67;;;15.17;;
71091;SDS011;58751;50.708;7.134;2024-01-10T13:31:30;23.20;;;16.10;;
71091;SDS011;58751;50.708;7.134;2024-01-10T13:33:56;24.17;;;14.60;;
71091;SDS011;58751;50.708;7.134;2024-01-10T13:36:21;21.40;;;15.23;;
71091;SDS011;58751;50.708;7.134;2024-01-10T13:38:46;22.53;;;15.50;;
71091;SDS011;58751;50.708;7.134;2024-01-10T13:41:13;31.93;;;16.67;;
71091;SDS011;58751;50.708;7.134;2024-01-10T13:43:38;25.42;;;16.17;;
71091;SDS011;58751;50.708;7.134;2024-01-10T13:46:04;22.73;;;16.10;;
71091;SDS011;58751;50.708;7.134;2024-01-10T13:48:29;25.83;;;15.63;;
71091;SDS011;58751;50.708;7.134;2024-01-10T13:50:55;23.90;;;15.50;;
71091;SDS011;58751;50.708;7.134;2024-01-10T13:53:20;26.73;;;16.27;;
71091;SDS011;58751;50.708;7.134;2024-01-10T13:55:45;22.97;;;16.90;;
71091;SDS011;58751;50.708;7.134;2024-01-10T13:58:12;24.30;;;14.70;;
71091;SDS011;58751;50.708;7.134;2024-01-10T14:00:38;24.33;;;15.32;;
71091;SDS011;58751;50.708;7.134;2024-01-10T14:03:03;20.73;;;15.40;;
71091;SDS011;58751;50.708;7.134;2024-01-10T14:05:29;22.40;;;13.87;;
71091;SDS011;58751;50.708;7.134;2024-01-10T14:07:54;24.20;;;15.13;;
71091;SDS011;58751;50.708;7.134;2024-01-10T14:10:19;24.20;;;15.37;;
71091;SDS011;58751;50.708;7.134;2024-01-10T14:12:45;23.43;;;15.73;;
71091;SDS011;58751;50.708;7.134;2024-01-10T14:15:12;23.23;;;14.47;;
71091;SDS011;58751;50.708;7.134;2024-01-10T14:17:37;21.80;;;15.38;;
71091;SDS011;58751;50.708;7.134;2024-01-10T14:20:03;22.63;;;14.47;;
71091;SDS011;58751;50.708;7.134;2024-01-10T14:22:29;21.85;;;14.07;;
71091;SDS011;58751;50.708;7.134;2024-01-10T14:24:55;20.17;;;13.47;;
71091;SDS011;58751;50.708;7.134;2024-01-10T14:27:20;20.20;;;15.30;;